CSCL Long Beach — VRCZ7 — position and weather

sailwx.info

Track history (hours):
 
Tides and Currents Weather Stations Pressure Air Temp Water Temp Dewpoint Dewpoint Depression Visibility Wind Speed Wind Dir Waves Ship Positions

CSCL Long Beach

Last reported at 2015-Aug-28 20:30 UTC. Time now 2015-Aug-29 00:12 UTC.
Position N 31°12' E 032°21'.

Length 336.7 m; beam 45.6 m; draft 15 m.

Type: Cargo ship. MMSI: 477883900.

Date/timePositionNaut miles runAvg speedWind from/ knotsBaromVisibWave heightAir tempDewpointWater temp
2015-Aug-28 20:30N 31°12' E 032°21'0 0.0
2015-Aug-28 13:30N 31°12' E 032°21'0 0.0
2015-Aug-28 11:24N 31°12' E 032°21'0 0.0
2015-Aug-28 10:33N 31°12' E 032°21'0 0.0
2015-Aug-27 20:33N 31°12' E 032°21'0 0.0
2015-Aug-27 15:18N 31°12' E 032°21'0 0.0
2015-Aug-27 14:27N 31°12' E 032°21'65 4.7
2015-Aug-27 00:34N 32°03' E 031°35'1715.9
2015-Aug-26 23:30N 32°15' E 031°20'1615.9
2015-Aug-26 22:30N 32°25' E 031°06'1515.6
2015-Aug-26 21:33N 32°32' E 030°51'1915.8
2015-Aug-26 20:22N 32°37' E 030°29'1915.8
2015-Aug-26 19:11N 32°42' E 030°08'1015.8
2015-Aug-26 18:33N 32°45' E 029°56'3115.7
2015-Aug-26 16:34N 32°51' E 029°20'59815.3
2015-Aug-25 01:29N 35°32' E 017°43'4514.8
2015-Aug-24 22:28N 35°45' E 016°50'1414.8
2015-Aug-24 21:33N 35°48' E 016°34'1715.1
2015-Aug-24 20:24N 35°52' E 016°13'1315.3
2015-Aug-24 19:34N 35°56' E 015°58'1515.3
2015-Aug-24 18:34N 35°60' E 015°40'1514.9
2015-Aug-24 17:33N 36°03' E 015°22'2914.6
2015-Aug-24 15:34N 36°11' E 014°47'1413.8
2015-Aug-24 14:34N 36°15' E 014°31'1414.2
2015-Aug-24 13:33N 36°20' E 014°14'1414.2
2015-Aug-24 12:33N 36°23' E 013°57'1414.4
2015-Aug-24 11:33N 36°28' E 013°40'1514.6
2015-Aug-24 10:33N 36°33' E 013°23'1514.9
2015-Aug-24 09:33N 36°37' E 013°06'1919.1
2015-Aug-24 08:34N 36°43' E 012°43'2625.6
2015-Aug-24 07:33N 36°53' E 012°13'2322.6
2015-Aug-24 06:33N 37°04' E 011°48'1717.0
2015-Aug-24 05:33N 37°12' E 011°30'1514.9
2015-Aug-24 04:33N 37°19' E 011°14'1514.8
2015-Aug-24 03:33N 37°28' E 010°58'1515.3
2015-Aug-24 02:33N 37°36' E 010°42'1615.4
2015-Aug-24 01:33N 37°42' E 010°24'1515.0
2015-Aug-24 00:31N 37°50' E 010°07'1414.6
2015-Aug-23 23:32N 37°53' E 009°49'1514.8
2015-Aug-23 22:33N 37°56' E 009°31'1515.2
2015-Aug-23 21:33N 37°60' E 009°12'1515.2
2015-Aug-23 20:33N 38°03' E 008°54'1514.9
2015-Aug-23 19:33N 38°06' E 008°35'1514.7
2015-Aug-23 18:33N 38°09' E 008°17'19615.1
2015-Aug-23 05:32N 38°50' E 004°11'2015.3
2015-Aug-23 04:14N 38°54' E 003°46'1115.7
2015-Aug-23 03:31N 38°56' E 003°32'1515.7
2015-Aug-23 02:33N 38°60' E 003°13'1615.6
2015-Aug-23 01:34N 39°03' E 002°53'1615.6
2015-Aug-23 00:33N 39°06' E 002°34'1515.2
2015-Aug-22 23:33N 39°09' E 002°15'1515.1
2015-Aug-22 22:33N 39°12' E 001°55'1514.9
2015-Aug-22 21:33N 39°15' E 001°37'1514.9
2015-Aug-22 20:33N 39°17' E 001°18'6514.8
2015-Aug-22 16:10N 39°24' W 000°06'915.1
2015-Aug-22 15:33N 39°25' W 000°18'2 1.6
2015-Aug-22 14:33N 39°27' W 000°19'0 0.0
2015-Aug-22 13:33N 39°27' W 000°19'0 0.0
2015-Aug-22 12:33N 39°27' W 000°19'0 0.0
2015-Aug-22 11:33N 39°27' W 000°19'0 0.0
2015-Aug-22 10:33N 39°27' W 000°19'0 0.0
2015-Aug-22 09:33N 39°27' W 000°19'0 0.0
2015-Aug-22 08:33N 39°27' W 000°19'0 0.0
2015-Aug-22 07:33N 39°27' W 000°19'0 0.0
2015-Aug-22 06:33N 39°27' W 000°19'0 0.0
2015-Aug-22 05:33N 39°27' W 000°19'0 0.0
2015-Aug-22 04:33N 39°27' W 000°19'0 0.0
2015-Aug-22 03:33N 39°27' W 000°19'0 0.0
2015-Aug-22 02:33N 39°27' W 000°19'0 0.0
2015-Aug-22 01:33N 39°27' W 000°19'0 0.0
2015-Aug-22 00:33N 39°27' W 000°19'0 0.0
2015-Aug-21 23:33N 39°27' W 000°19'0 0.0
2015-Aug-21 22:33N 39°27' W 000°19'0 0.0
2015-Aug-21 21:33N 39°27' W 000°19'0 0.0
2015-Aug-21 20:33N 39°27' W 000°19'0 0.0
2015-Aug-21 19:33N 39°27' W 000°19'0 0.0
2015-Aug-21 18:33N 39°27' W 000°19'0 0.0
2015-Aug-21 17:33N 39°27' W 000°19'0 0.0
2015-Aug-21 16:33N 39°27' W 000°19'3 2.6
2015-Aug-21 15:33N 39°25' W 000°16'1111.2
2015-Aug-21 14:32N 39°28' W 000°02'2116.8
2015-Aug-21 13:18N 39°37' E 000°22'1516.9
2015-Aug-21 12:26N 39°44' E 000°39'1517.1
2015-Aug-21 11:34N 39°50' E 000°57'1716.9
2015-Aug-21 10:33N 40°03' E 001°12'1717.0
2015-Aug-21 09:33N 40°15' E 001°27'1717.2
2015-Aug-21 08:33N 40°28' E 001°42'1716.7
2015-Aug-21 07:34N 40°40' E 001°57'1616.4
2015-Aug-21 06:33N 40°53' E 002°11'1717.3
2015-Aug-21 05:33N 41°05' E 002°27'1919.5
2015-Aug-21 04:33N 41°20' E 002°44'2019.6
2015-Aug-21 03:33N 41°35' E 003°02'1918.9
2015-Aug-21 02:33N 41°48' E 003°19'2319.9
2015-Aug-21 01:25N 42°05' E 003°40'1720.0
2015-Aug-21 00:33N 42°17' E 003°56'2020.0
2015-Aug-20 23:33N 42°33' E 004°13'2019.9
2015-Aug-20 22:34N 42°48' E 004°31'2019.8
2015-Aug-20 21:33N 43°02' E 004°49'1817.8
2015-Aug-20 20:33N 43°18' E 004°59'9 8.6
2015-Aug-20 19:32N 43°25' E 004°51'0 0.0
2015-Aug-20 18:32N 43°25' E 004°51'0 0.0
2015-Aug-20 17:32N 43°25' E 004°51'0 0.0
2015-Aug-20 16:32N 43°25' E 004°51'0 0.0
2015-Aug-20 15:32N 43°25' E 004°51'0 0.0
2015-Aug-20 14:32N 43°25' E 004°51'0 0.0
2015-Aug-20 13:32N 43°25' E 004°51'0 0.0
2015-Aug-20 12:32N 43°25' E 004°51'0 0.0
2015-Aug-20 11:32N 43°25' E 004°51'0 0.0
2015-Aug-20 10:29N 43°25' E 004°51'0 0.0
2015-Aug-20 09:32N 43°25' E 004°51'0 0.0
2015-Aug-20 08:32N 43°25' E 004°51'0 0.0
2015-Aug-20 07:32N 43°25' E 004°51'0 0.0
2015-Aug-20 06:32N 43°25' E 004°51'0 0.0
2015-Aug-20 05:29N 43°25' E 004°51'0 0.0
2015-Aug-20 04:32N 43°25' E 004°51'0 0.0
2015-Aug-20 03:32N 43°25' E 004°51'0 0.0
2015-Aug-20 02:32N 43°25' E 004°51'0 0.0
2015-Aug-20 01:32N 43°25' E 004°51'0 0.0
2015-Aug-20 00:32N 43°25' E 004°51'0 0.0
2015-Aug-19 23:32N 43°25' E 004°51'0 0.0
2015-Aug-19 22:32N 43°25' E 004°51'0 0.0
2015-Aug-19 21:32N 43°25' E 004°51'0 0.0
2015-Aug-19 20:29N 43°25' E 004°51'0 0.0
2015-Aug-19 19:29N 43°25' E 004°51'0 0.0
2015-Aug-19 18:32N 43°25' E 004°51'0 0.0
2015-Aug-19 17:32N 43°25' E 004°51'0 0.0
2015-Aug-19 16:32N 43°25' E 004°51'0 0.0
2015-Aug-19 15:32N 43°25' E 004°51'0 0.0
2015-Aug-19 14:32N 43°25' E 004°51'0 0.0
2015-Aug-19 13:32N 43°25' E 004°51'0 0.0
2015-Aug-19 12:32N 43°25' E 004°51'0 0.0
2015-Aug-19 11:32N 43°25' E 004°51'0 0.0
2015-Aug-19 10:32N 43°25' E 004°51'0 0.0
2015-Aug-19 09:32N 43°25' E 004°51'0 0.0
2015-Aug-19 08:29N 43°25' E 004°51'0 0.0
2015-Aug-19 07:33N 43°25' E 004°51'5 5.2
2015-Aug-19 06:33N 43°23' E 004°57'7 7.5
2015-Aug-19 05:34N 43°16' E 005°01'9 8.5
2015-Aug-19 04:33N 43°09' E 005°09'3614.7
2015-Aug-19 02:06N 42°54' E 005°53'2214.2
2015-Aug-19 00:33N 42°52' E 006°23'1313.4
2015-Aug-18 23:33N 42°56' E 006°40'1514.8
2015-Aug-18 22:33N 43°04' E 006°57'1514.8
2015-Aug-18 21:33N 43°14' E 007°13'1515.0
2015-Aug-18 20:33N 43°23' E 007°29'  
Track history (hours):
 
Tides and Currents Weather Stations Pressure Air Temp Water Temp Dewpoint Dewpoint Depression Visibility Wind Speed Wind Dir Waves Ship Positions

CSCL Long Beach

Last reported at 2015-Aug-28 20:30 UTC. Time now 2015-Aug-29 00:12 UTC.
Position N 31°12' E 032°21'.

Length 336.7 m; beam 45.6 m; draft 15 m.

Type: Cargo ship. MMSI: 477883900.

Date/timePositionNaut miles runAvg speedWind from/ knotsBaromVisibWave heightAir tempDewpointWater temp
2015-Aug-28 20:30N 31°12' E 032°21'0 0.0
2015-Aug-28 13:30N 31°12' E 032°21'0 0.0
2015-Aug-28 11:24N 31°12' E 032°21'0 0.0
2015-Aug-28 10:33N 31°12' E 032°21'0 0.0
2015-Aug-27 20:33N 31°12' E 032°21'0 0.0
2015-Aug-27 15:18N 31°12' E 032°21'0 0.0
2015-Aug-27 14:27N 31°12' E 032°21'65 4.7
2015-Aug-27 00:34N 32°03' E 031°35'1715.9
2015-Aug-26 23:30N 32°15' E 031°20'1615.9
2015-Aug-26 22:30N 32°25' E 031°06'1515.6
2015-Aug-26 21:33N 32°32' E 030°51'1915.8
2015-Aug-26 20:22N 32°37' E 030°29'1915.8
2015-Aug-26 19:11N 32°42' E 030°08'1015.8
2015-Aug-26 18:33N 32°45' E 029°56'3115.7
2015-Aug-26 16:34N 32°51' E 029°20'59815.3
2015-Aug-25 01:29N 35°32' E 017°43'4514.8
2015-Aug-24 22:28N 35°45' E 016°50'1414.8
2015-Aug-24 21:33N 35°48' E 016°34'1715.1
2015-Aug-24 20:24N 35°52' E 016°13'1315.3
2015-Aug-24 19:34N 35°56' E 015°58'1515.3
2015-Aug-24 18:34N 35°60' E 015°40'1514.9
2015-Aug-24 17:33N 36°03' E 015°22'2914.6
2015-Aug-24 15:34N 36°11' E 014°47'1413.8
2015-Aug-24 14:34N 36°15' E 014°31'1414.2
2015-Aug-24 13:33N 36°20' E 014°14'1414.2
2015-Aug-24 12:33N 36°23' E 013°57'1414.4
2015-Aug-24 11:33N 36°28' E 013°40'1514.6
2015-Aug-24 10:33N 36°33' E 013°23'1514.9
2015-Aug-24 09:33N 36°37' E 013°06'1919.1
2015-Aug-24 08:34N 36°43' E 012°43'2625.6
2015-Aug-24 07:33N 36°53' E 012°13'2322.6
2015-Aug-24 06:33N 37°04' E 011°48'1717.0
2015-Aug-24 05:33N 37°12' E 011°30'1514.9
2015-Aug-24 04:33N 37°19' E 011°14'1514.8
2015-Aug-24 03:33N 37°28' E 010°58'1515.3
2015-Aug-24 02:33N 37°36' E 010°42'1615.4
2015-Aug-24 01:33N 37°42' E 010°24'1515.0
2015-Aug-24 00:31N 37°50' E 010°07'1414.6
2015-Aug-23 23:32N 37°53' E 009°49'1514.8
2015-Aug-23 22:33N 37°56' E 009°31'1515.2
2015-Aug-23 21:33N 37°60' E 009°12'1515.2
2015-Aug-23 20:33N 38°03' E 008°54'1514.9
2015-Aug-23 19:33N 38°06' E 008°35'1514.7
2015-Aug-23 18:33N 38°09' E 008°17'19615.1
2015-Aug-23 05:32N 38°50' E 004°11'2015.3
2015-Aug-23 04:14N 38°54' E 003°46'1115.7
2015-Aug-23 03:31N 38°56' E 003°32'1515.7
2015-Aug-23 02:33N 38°60' E 003°13'1615.6
2015-Aug-23 01:34N 39°03' E 002°53'1615.6
2015-Aug-23 00:33N 39°06' E 002°34'1515.2
2015-Aug-22 23:33N 39°09' E 002°15'1515.1
2015-Aug-22 22:33N 39°12' E 001°55'1514.9
2015-Aug-22 21:33N 39°15' E 001°37'1514.9
2015-Aug-22 20:33N 39°17' E 001°18'6514.8
2015-Aug-22 16:10N 39°24' W 000°06'915.1
2015-Aug-22 15:33N 39°25' W 000°18'2 1.6
2015-Aug-22 14:33N 39°27' W 000°19'0 0.0
2015-Aug-22 13:33N 39°27' W 000°19'0 0.0
2015-Aug-22 12:33N 39°27' W 000°19'0 0.0
2015-Aug-22 11:33N 39°27' W 000°19'0 0.0
2015-Aug-22 10:33N 39°27' W 000°19'0 0.0
2015-Aug-22 09:33N 39°27' W 000°19'0 0.0
2015-Aug-22 08:33N 39°27' W 000°19'0 0.0
2015-Aug-22 07:33N 39°27' W 000°19'0 0.0
2015-Aug-22 06:33N 39°27' W 000°19'0 0.0
2015-Aug-22 05:33N 39°27' W 000°19'0 0.0
2015-Aug-22 04:33N 39°27' W 000°19'0 0.0
2015-Aug-22 03:33N 39°27' W 000°19'0 0.0
2015-Aug-22 02:33N 39°27' W 000°19'0 0.0
2015-Aug-22 01:33N 39°27' W 000°19'0 0.0
2015-Aug-22 00:33N 39°27' W 000°19'0 0.0
2015-Aug-21 23:33N 39°27' W 000°19'0 0.0
2015-Aug-21 22:33N 39°27' W 000°19'0 0.0
2015-Aug-21 21:33N 39°27' W 000°19'0 0.0
2015-Aug-21 20:33N 39°27' W 000°19'0 0.0
2015-Aug-21 19:33N 39°27' W 000°19'0 0.0
2015-Aug-21 18:33N 39°27' W 000°19'0 0.0
2015-Aug-21 17:33N 39°27' W 000°19'0 0.0
2015-Aug-21 16:33N 39°27' W 000°19'3 2.6
2015-Aug-21 15:33N 39°25' W 000°16'1111.2
2015-Aug-21 14:32N 39°28' W 000°02'2116.8
2015-Aug-21 13:18N 39°37' E 000°22'1516.9
2015-Aug-21 12:26N 39°44' E 000°39'1517.1
2015-Aug-21 11:34N 39°50' E 000°57'1716.9
2015-Aug-21 10:33N 40°03' E 001°12'1717.0
2015-Aug-21 09:33N 40°15' E 001°27'1717.2
2015-Aug-21 08:33N 40°28' E 001°42'1716.7
2015-Aug-21 07:34N 40°40' E 001°57'1616.4
2015-Aug-21 06:33N 40°53' E 002°11'1717.3
2015-Aug-21 05:33N 41°05' E 002°27'1919.5
2015-Aug-21 04:33N 41°20' E 002°44'2019.6
2015-Aug-21 03:33N 41°35' E 003°02'1918.9
2015-Aug-21 02:33N 41°48' E 003°19'2319.9
2015-Aug-21 01:25N 42°05' E 003°40'1720.0
2015-Aug-21 00:33N 42°17' E 003°56'2020.0
2015-Aug-20 23:33N 42°33' E 004°13'2019.9
2015-Aug-20 22:34N 42°48' E 004°31'2019.8
2015-Aug-20 21:33N 43°02' E 004°49'1817.8
2015-Aug-20 20:33N 43°18' E 004°59'9 8.6
2015-Aug-20 19:32N 43°25' E 004°51'0 0.0
2015-Aug-20 18:32N 43°25' E 004°51'0 0.0
2015-Aug-20 17:32N 43°25' E 004°51'0 0.0
2015-Aug-20 16:32N 43°25' E 004°51'0 0.0
2015-Aug-20 15:32N 43°25' E 004°51'0 0.0
2015-Aug-20 14:32N 43°25' E 004°51'0 0.0
2015-Aug-20 13:32N 43°25' E 004°51'0 0.0
2015-Aug-20 12:32N 43°25' E 004°51'0 0.0
2015-Aug-20 11:32N 43°25' E 004°51'0 0.0
2015-Aug-20 10:29N 43°25' E 004°51'0 0.0
2015-Aug-20 09:32N 43°25' E 004°51'0 0.0
2015-Aug-20 08:32N 43°25' E 004°51'0 0.0
2015-Aug-20 07:32N 43°25' E 004°51'0 0.0
2015-Aug-20 06:32N 43°25' E 004°51'0 0.0
2015-Aug-20 05:29N 43°25' E 004°51'0 0.0
2015-Aug-20 04:32N 43°25' E 004°51'0 0.0
2015-Aug-20 03:32N 43°25' E 004°51'0 0.0
2015-Aug-20 02:32N 43°25' E 004°51'0 0.0
2015-Aug-20 01:32N 43°25' E 004°51'0 0.0
2015-Aug-20 00:32N 43°25' E 004°51'0 0.0
2015-Aug-19 23:32N 43°25' E 004°51'0 0.0
2015-Aug-19 22:32N 43°25' E 004°51'0 0.0
2015-Aug-19 21:32N 43°25' E 004°51'0 0.0
2015-Aug-19 20:29N 43°25' E 004°51'0 0.0
2015-Aug-19 19:29N 43°25' E 004°51'0 0.0
2015-Aug-19 18:32N 43°25' E 004°51'0 0.0
2015-Aug-19 17:32N 43°25' E 004°51'0 0.0
2015-Aug-19 16:32N 43°25' E 004°51'0 0.0
2015-Aug-19 15:32N 43°25' E 004°51'0 0.0
2015-Aug-19 14:32N 43°25' E 004°51'0 0.0
2015-Aug-19 13:32N 43°25' E 004°51'0 0.0
2015-Aug-19 12:32N 43°25' E 004°51'0 0.0
2015-Aug-19 11:32N 43°25' E 004°51'0 0.0
2015-Aug-19 10:32N 43°25' E 004°51'0 0.0
2015-Aug-19 09:32N 43°25' E 004°51'0 0.0
2015-Aug-19 08:29N 43°25' E 004°51'0 0.0
2015-Aug-19 07:33N 43°25' E 004°51'5 5.2
2015-Aug-19 06:33N 43°23' E 004°57'7 7.5
2015-Aug-19 05:34N 43°16' E 005°01'9 8.5
2015-Aug-19 04:33N 43°09' E 005°09'3614.7
2015-Aug-19 02:06N 42°54' E 005°53'2214.2
2015-Aug-19 00:33N 42°52' E 006°23'1313.4
2015-Aug-18 23:33N 42°56' E 006°40'1514.8
2015-Aug-18 22:33N 43°04' E 006°57'1514.8
2015-Aug-18 21:33N 43°14' E 007°13'1515.0
2015-Aug-18 20:33N 43°23' E 007°29'  

Dump ship's entire track history